Time;durP1;ratioP1;P1;durP2;ratioP2;P2;SDS_P1;SDS_P2;PMS_P1;PMS_P2;Temp;Humidity;BMP_temperature;BMP_pressure;BME280_temperature;BME280_humidity;BME280_pressure;Samples;Min_cycle;Max_cycle;Signal;HPM_P1;HPM_P2
2022/08/14 00:02:04;;;;;;;1.35;1.25;;;24.10;65.30;;;;;;5115865;28;20201;-57
2022/08/14 00:04:34;;;;;;;1.10;1.00;;;24.10;64.90;;;;;;5116044;28;20204;-57
2022/08/14 00:06:59;;;;;;;1.10;1.00;;;24.10;65.10;;;;;;5115730;28;20205;-57
2022/08/14 00:09:25;;;;;;;1.50;1.20;;;24.10;65.50;;;;;;5115802;28;20220;-57
2022/08/14 00:11:51;;;;;;;1.27;1.17;;;24.10;65.30;;;;;;5115846;28;20579;-57
2022/08/14 00:14:17;;;;;;;1.17;1.08;;;24.10;65.20;;;;;;5114475;28;20280;-56
2022/08/14 00:16:43;;;;;;;0.90;0.90;;;24.00;65.70;;;;;;5114582;28;20173;-57
2022/08/14 00:19:09;;;;;;;1.20;1.10;;;24.00;65.70;;;;;;5115751;28;20213;-57
2022/08/14 00:21:36;;;;;;;1.85;1.20;;;24.00;65.90;;;;;;5115659;28;20173;-57
2022/08/14 00:24:03;;;;;;;0.73;0.73;;;24.00;66.20;;;;;;5114376;28;20170;-57
2022/08/14 00:26:29;;;;;;;1.20;1.10;;;24.00;65.80;;;;;;5114219;28;20270;-56
2022/08/14 00:28:55;;;;;;;1.10;1.00;;;24.00;66.00;;;;;;5114451;28;20199;-56
2022/08/14 00:31:21;;;;;;;1.40;1.20;;;24.00;65.80;;;;;;5114438;28;20169;-57
2022/08/14 00:33:47;;;;;;;1.33;1.20;;;24.00;66.20;;;;;;5115455;28;20166;-57
2022/08/14 00:36:12;;;;;;;1.33;1.17;;;24.00;65.90;;;;;;5115347;28;20573;-57
2022/08/14 00:38:38;;;;;;;1.10;1.00;;;23.90;66.20;;;;;;5113977;28;20209;-57
2022/08/14 00:41:05;;;;;;;1.00;0.90;;;23.90;66.20;;;;;;5115080;28;20173;-58
2022/08/14 00:43:36;;;;;;;1.23;1.13;;;23.80;66.70;;;;;;5113858;28;20182;-57
2022/08/14 00:46:07;;;;;;;1.85;1.40;;;23.80;66.80;;;;;;5114050;28;20260;-57
2022/08/14 00:48:33;;;;;;;1.00;1.00;;;23.80;67.00;;;;;;5113708;28;20173;-57
2022/08/14 00:50:59;;;;;;;1.40;1.23;;;23.70;67.00;;;;;;5114974;28;20179;-59
2022/08/14 00:53:25;;;;;;;1.13;1.02;;;23.70;67.30;;;;;;5096249;28;20205;-57
2022/08/14 00:55:54;;;;;;;1.10;1.10;;;23.60;67.30;;;;;;5114797;28;20201;-57
2022/08/14 00:58:29;;;;;;;1.42;1.33;;;23.60;67.30;;;;;;5115031;28;20299;-57
2022/08/14 01:01:00;;;;;;;1.20;1.10;;;23.60;67.50;;;;;;5114993;28;20168;-57
2022/08/14 01:03:30;;;;;;;1.70;1.60;;;23.60;67.60;;;;;;5114737;28;20255;-57
2022/08/14 01:05:57;;;;;;;1.20;1.10;;;23.50;67.90;;;;;;5114687;28;20211;-57
2022/08/14 01:08:28;;;;;;;1.38;1.23;;;23.50;67.90;;;;;;5113238;28;20180;-57
2022/08/14 01:10:55;;;;;;;1.08;1.08;;;23.50;68.10;;;;;;5114895;28;20580;-57
2022/08/14 01:13:24;;;;;;;1.65;1.27;;;23.40;68.30;;;;;;5114686;28;20213;-57
2022/08/14 01:15:54;;;;;;;1.30;1.20;;;23.40;68.40;;;;;;5113300;28;20196;-57
2022/08/14 01:21:08;;;;;;;1.02;1.00;;;23.30;68.70;;;;;;5113586;28;20203;-57
2022/08/14 01:23:37;;;;;;;1.48;1.20;;;23.20;69.30;;;;;;5113350;28;20184;-57
2022/08/14 01:26:03;;;;;;;1.42;1.33;;;23.20;69.10;;;;;;5114191;28;20229;-57
2022/08/14 01:28:30;;;;;;;2.42;1.02;;;23.20;69.20;;;;;;5114406;28;20177;-56
2022/08/14 01:30:57;;;;;;;1.40;1.30;;;23.00;69.50;;;;;;5114158;28;20531;-57
2022/08/14 01:33:27;;;;;;;1.13;1.02;;;23.00;70.20;;;;;;5114142;28;20174;-57
2022/08/14 01:35:56;;;;;;;1.25;1.15;;;22.90;70.60;;;;;;5113167;28;20235;-57
2022/08/14 01:38:24;;;;;;;1.52;1.42;;;22.80;70.60;;;;;;5114157;28;20266;-57
2022/08/14 01:40:50;;;;;;;1.50;1.40;;;22.80;70.90;;;;;;5114132;28;20539;-57
2022/08/14 01:43:16;;;;;;;1.50;1.40;;;22.80;70.80;;;;;;5114252;28;20177;-57
2022/08/14 01:45:50;;;;;;;1.52;1.40;;;22.70;71.30;;;;;;5113923;28;20165;-57
2022/08/14 01:48:16;;;;;;;1.50;1.23;;;22.70;70.90;;;;;;5114130;28;20184;-57
2022/08/14 01:50:42;;;;;;;1.77;1.30;;;22.80;70.90;;;;;;5114061;28;20618;-57
2022/08/14 01:53:08;;;;;;;2.20;1.38;;;22.80;71.00;;;;;;5113865;28;20247;-57
2022/08/14 01:55:38;;;;;;;1.52;1.38;;;22.80;71.20;;;;;;5113864;28;20523;-57
2022/08/14 01:58:03;;;;;;;1.40;1.30;;;22.70;71.00;;;;;;5113743;28;20245;-56
2022/08/14 02:00:29;;;;;;;1.25;1.17;;;22.70;71.10;;;;;;5113738;28;20177;-57
2022/08/14 02:02:56;;;;;;;1.38;1.27;;;22.70;71.00;;;;;;5112690;28;20178;-57
2022/08/14 02:05:28;;;;;;;1.40;1.30;;;22.70;71.50;;;;;;5095685;28;20546;-57
2022/08/14 02:07:54;;;;;;;1.45;1.35;;;22.60;71.90;;;;;;5113927;28;20268;-57
2022/08/14 02:10:20;;;;;;;1.40;1.30;;;22.50;71.80;;;;;;5113724;28;20188;-57
2022/08/14 02:12:47;;;;;;;1.50;1.40;;;22.40;73.00;;;;;;5113576;28;20189;-57
2022/08/14 02:15:20;;;;;;;1.35;1.25;;;22.50;72.60;;;;;;5112372;28;20648;-57
2022/08/14 02:17:47;;;;;;;1.30;1.20;;;22.40;73.00;;;;;;5113692;28;20177;-57
2022/08/14 02:20:12;;;;;;;1.20;1.10;;;22.40;73.20;;;;;;5113760;28;20263;-57
2022/08/14 02:22:38;;;;;;;1.20;1.10;;;22.30;73.20;;;;;;5113682;28;20204;-57
2022/08/14 02:25:04;;;;;;;1.45;1.30;;;22.20;74.00;;;;;;5113555;28;20177;-56
2022/08/14 02:27:31;;;;;;;1.60;1.50;;;22.20;74.00;;;;;;5113434;28;20184;-57
2022/08/14 02:29:56;;;;;;;1.30;1.20;;;22.20;73.20;;;;;;5113758;28;20181;-57
2022/08/14 02:32:22;;;;;;;1.55;1.33;;;22.30;73.50;;;;;;5095440;28;20538;-57
2022/08/14 02:34:48;;;;;;;1.58;1.33;;;22.30;73.80;;;;;;5113493;28;20212;-57
2022/08/14 02:37:14;;;;;;;1.30;1.20;;;22.30;73.60;;;;;;5113378;28;20170;-57
2022/08/14 02:39:45;;;;;;;1.30;1.20;;;22.30;73.80;;;;;;5113345;28;20238;-57
2022/08/14 02:42:16;;;;;;;1.58;1.20;;;22.20;74.20;;;;;;5112222;28;20169;-57
2022/08/14 02:44:43;;;;;;;1.30;1.20;;;22.20;74.10;;;;;;5113800;28;20173;-57
2022/08/14 02:47:10;;;;;;;2.65;1.42;;;22.30;74.20;;;;;;5113483;28;20177;-57
2022/08/14 02:49:36;;;;;;;1.20;1.10;;;22.10;74.60;;;;;;5113429;28;20177;-57
2022/08/14 02:52:06;;;;;;;1.30;1.20;;;22.10;74.90;;;;;;5113374;28;20173;-57
2022/08/14 02:54:33;;;;;;;1.55;1.40;;;22.00;75.10;;;;;;5113308;28;20260;-57
2022/08/14 02:57:00;;;;;;;2.70;1.55;;;22.00;75.40;;;;;;5113138;28;20196;-57
2022/08/14 02:59:30;;;;;;;1.20;1.10;;;22.00;75.30;;;;;;5113209;28;20569;-58
2022/08/14 03:01:56;;;;;;;1.38;1.27;;;22.00;75.70;;;;;;5112153;28;20598;-58
2022/08/14 03:04:23;;;;;;;1.05;1.05;;;22.00;75.40;;;;;;5095051;28;20542;-57
2022/08/14 03:06:49;;;;;;;1.27;1.17;;;22.00;75.70;;;;;;5113250;28;20169;-58
2022/08/14 03:09:16;;;;;;;2.42;1.58;;;22.00;75.50;;;;;;5113080;28;20638;-56
2022/08/14 03:11:43;;;;;;;1.55;1.20;;;22.10;75.90;;;;;;5113326;28;20186;-57
2022/08/14 03:14:13;;;;;;;1.30;1.20;;;22.10;76.00;;;;;;5113018;28;20242;-58
2022/08/14 03:16:40;;;;;;;1.50;1.40;;;22.10;76.30;;;;;;5115143;28;20162;-57
2022/08/14 03:19:07;;;;;;;1.40;1.30;;;22.00;76.80;;;;;;5116824;28;20265;-57
2022/08/14 03:21:35;;;;;;;1.55;1.20;;;21.90;77.30;;;;;;5116853;28;20169;-58
2022/08/14 03:24:13;;;;;;;1.70;1.50;;;21.90;77.50;;;;;;5116597;28;20515;-57
2022/08/14 03:26:41;;;;;;;1.52;1.42;;;21.90;77.80;;;;;;5116928;28;20169;-58
2022/08/14 03:29:08;;;;;;;1.48;1.30;;;21.90;78.30;;;;;;5116718;28;20177;-58
2022/08/14 03:31:35;;;;;;;1.70;1.50;;;21.90;78.10;;;;;;5116751;28;20627;-58
2022/08/14 03:34:02;;;;;;;1.73;1.42;;;21.70;78.00;;;;;;5116864;28;20185;-57
2022/08/14 03:36:31;;;;;;;1.30;1.20;;;21.70;78.30;;;;;;5116378;28;20169;-57
2022/08/14 03:38:58;;;;;;;1.63;1.52;;;21.70;77.80;;;;;;5115601;28;20576;-57
2022/08/14 03:41:26;;;;;;;1.67;1.45;;;21.70;78.10;;;;;;5116541;28;20165;-58
2022/08/14 03:43:57;;;;;;;1.67;1.58;;;21.60;78.50;;;;;;5116321;28;20658;-56
2022/08/14 03:46:26;;;;;;;1.38;1.27;;;21.60;78.30;;;;;;5116335;28;20172;-57
2022/08/14 03:48:55;;;;;;;1.75;1.65;;;21.70;78.70;;;;;;5114804;28;20184;-57
2022/08/14 03:51:27;;;;;;;1.85;1.60;;;21.60;78.60;;;;;;5116160;28;20173;-57
2022/08/14 03:53:55;;;;;;;1.67;1.58;;;21.50;79.10;;;;;;5115230;28;20173;-57
2022/08/14 03:56:20;;;;;;;1.50;1.40;;;21.40;79.70;;;;;;5116085;28;20181;-57
2022/08/14 03:58:51;;;;;;;1.63;1.50;;;21.50;80.20;;;;;;5114847;28;20209;-57
2022/08/14 04:01:21;;;;;;;1.60;1.50;;;21.40;81.10;;;;;;5116025;28;20173;-56
2022/08/14 04:03:48;;;;;;;1.63;1.50;;;21.30;80.90;;;;;;5116159;28;20184;-57
2022/08/14 04:06:15;;;;;;;1.85;1.63;;;21.30;80.80;;;;;;5115884;28;20539;-58
2022/08/14 04:08:42;;;;;;;2.92;1.40;;;21.30;80.40;;;;;;5115974;28;20169;-57
2022/08/14 04:11:12;;;;;;;2.25;1.65;;;21.30;79.30;;;;;;5114777;28;20173;-57
2022/08/14 04:13:42;;;;;;;2.03;1.50;;;21.30;79.40;;;;;;5114533;28;20267;-58
2022/08/14 04:16:20;;;;;;;1.33;1.23;;;21.30;79.00;;;;;;5115685;28;20177;-57
2022/08/14 04:18:49;;;;;;;1.23;1.13;;;21.30;79.20;;;;;;5115772;28;20209;-57
2022/08/14 04:21:16;;;;;;;1.60;1.50;;;21.30;79.40;;;;;;5115674;28;20534;-57
2022/08/14 04:23:44;;;;;;;1.60;1.50;;;21.20;79.30;;;;;;5115587;28;20174;-57
2022/08/14 04:26:12;;;;;;;1.40;1.30;;;21.10;79.00;;;;;;5115489;28;20174;-58
2022/08/14 04:28:40;;;;;;;1.42;1.33;;;21.10;79.40;;;;;;5114348;28;20169;-58
2022/08/14 04:31:06;;;;;;;1.83;1.50;;;21.00;79.00;;;;;;5115658;28;20705;-57
2022/08/14 04:33:32;;;;;;;1.45;1.35;;;21.00;78.80;;;;;;5115577;28;20174;-57
2022/08/14 04:35:58;;;;;;;1.60;1.48;;;21.00;78.70;;;;;;5115334;28;20571;-57
2022/08/14 04:43:53;;;;;;;1.60;1.50;;;21.00;78.30;;;;;;5115464;28;20238;-57
2022/08/14 04:46:21;;;;;;;3.05;1.90;;;21.10;78.60;;;;;;5113927;28;20268;-57
2022/08/14 04:48:47;;;;;;;1.60;1.50;;;21.00;78.90;;;;;;5114939;28;20597;-57
2022/08/14 04:51:15;;;;;;;1.75;1.60;;;21.00;78.40;;;;;;5114917;28;20180;-57
2022/08/14 04:53:44;;;;;;;1.55;1.45;;;21.00;78.50;;;;;;5114960;27;20173;-57
2022/08/14 04:56:12;;;;;;;1.40;1.30;;;20.90;78.70;;;;;;5115077;28;20165;-57
2022/08/14 04:58:38;;;;;;;1.58;1.48;;;20.90;78.40;;;;;;5113792;28;20539;-57
2022/08/14 05:01:06;;;;;;;1.25;1.15;;;21.10;78.50;;;;;;5113691;28;20172;-57
2022/08/14 05:03:34;;;;;;;3.15;1.80;;;21.10;79.00;;;;;;5114611;28;20261;-57
2022/08/14 05:06:04;;;;;;;1.60;1.50;;;21.10;79.10;;;;;;5114622;28;20173;-58
2022/08/14 05:08:31;;;;;;;1.50;1.40;;;21.20;79.50;;;;;;5115303;28;20178;-58
2022/08/14 05:10:59;;;;;;;1.77;1.58;;;21.20;80.00;;;;;;5114638;28;20161;-58
2022/08/14 05:13:26;;;;;;;1.63;1.48;;;21.20;79.70;;;;;;5114824;28;20272;-58
2022/08/14 05:15:53;;;;;;;1.70;1.55;;;21.30;79.20;;;;;;5113515;28;20168;-57
2022/08/14 05:18:22;;;;;;;1.88;1.70;;;21.40;79.50;;;;;;5114477;28;20712;-57
2022/08/14 05:20:51;;;;;;;2.10;1.63;;;21.40;79.80;;;;;;5114586;28;20173;-58
2022/08/14 05:23:20;;;;;;;1.40;1.30;;;21.40;79.70;;;;;;5114475;28;20169;-56
2022/08/14 05:25:47;;;;;;;1.95;1.70;;;21.50;80.80;;;;;;5114499;28;20638;-58
2022/08/14 05:28:18;;;;;;;3.83;1.60;;;21.50;80.20;;;;;;5114284;28;20173;-57
2022/08/14 05:30:49;;;;;;;1.70;1.60;;;21.50;81.00;;;;;;5114469;28;20181;-57
2022/08/14 05:33:17;;;;;;;1.65;1.52;;;21.60;81.40;;;;;;5114442;28;20184;-58
2022/08/14 05:35:43;;;;;;;2.35;1.70;;;21.60;81.70;;;;;;5114371;28;20169;-57
2022/08/14 05:38:15;;;;;;;2.88;1.67;;;21.70;81.20;;;;;;5114229;28;20204;-57
2022/08/14 05:40:42;;;;;;;2.15;1.80;;;21.80;81.40;;;;;;5114106;28;20522;-57
2022/08/14 05:43:08;;;;;;;2.08;1.83;;;21.90;79.80;;;;;;5114085;28;20252;-58
2022/08/14 05:45:36;;;;;;;1.85;1.63;;;22.10;79.60;;;;;;5114048;28;20173;-58
2022/08/14 05:48:03;;;;;;;2.22;1.92;;;22.30;79.20;;;;;;5114227;28;20177;-57
2022/08/14 05:50:28;;;;;;;2.40;1.88;;;22.40;78.90;;;;;;5114171;28;20279;-57
2022/08/14 05:52:54;;;;;;;1.88;1.65;;;22.40;79.20;;;;;;5114277;28;20252;-57
2022/08/14 05:55:21;;;;;;;2.00;1.80;;;22.30;79.40;;;;;;5112797;28;20177;-57
2022/08/14 05:57:54;;;;;;;2.20;1.95;;;22.30;79.20;;;;;;5113850;28;20245;-57
2022/08/14 06:00:28;;;;;;;2.67;2.35;;;22.30;79.20;;;;;;5114109;28;20210;-57
2022/08/14 06:02:55;;;;;;;2.17;1.75;;;22.20;79.00;;;;;;5113912;28;20601;-57
2022/08/14 06:05:23;;;;;;;3.03;2.13;;;22.30;78.60;;;;;;5113876;28;20197;-57
2022/08/14 06:07:49;;;;;;;2.22;1.63;;;22.10;79.00;;;;;;5113832;28;20169;-57
2022/08/14 06:10:15;;;;;;;2.17;1.83;;;22.20;78.50;;;;;;5113676;28;20630;-57
2022/08/14 06:12:41;;;;;;;2.20;1.60;;;22.30;78.20;;;;;;5113333;28;20177;-57
2022/08/14 06:15:08;;;;;;;2.00;1.80;;;22.50;77.50;;;;;;5113972;28;20174;-57
2022/08/14 06:17:51;;;;;;;2.40;2.20;;;22.60;76.80;;;;;;5113735;28;20173;-57
2022/08/14 06:20:19;;;;;;;1.73;1.60;;;22.70;76.50;;;;;;5112577;28;20185;-57
2022/08/14 06:22:46;;;;;;;1.83;1.60;;;22.90;76.10;;;;;;5112385;28;20179;-58
2022/08/14 06:25:13;;;;;;;2.33;1.70;;;23.20;74.80;;;;;;5113556;28;20681;-57
2022/08/14 06:27:43;;;;;;;1.70;1.35;;;23.20;74.70;;;;;;5113516;28;20368;-58
2022/08/14 06:30:24;;;;;;;1.95;1.80;;;23.50;74.40;;;;;;5112538;28;20193;-57
2022/08/14 06:32:50;;;;;;;3.20;1.67;;;23.70;73.50;;;;;;5113570;28;20241;-58
2022/08/14 06:35:19;;;;;;;2.33;1.48;;;23.80;72.80;;;;;;5113504;28;20642;-57
2022/08/14 06:37:51;;;;;;;1.40;1.30;;;23.90;72.80;;;;;;5113337;28;20205;-58
2022/08/14 06:40:21;;;;;;;1.95;1.75;;;24.10;72.10;;;;;;5113542;28;20238;-57
2022/08/14 06:42:46;;;;;;;1.98;1.75;;;24.30;72.50;;;;;;5111765;28;20192;-58
2022/08/14 06:45:12;;;;;;;1.50;1.30;;;24.50;71.60;;;;;;5112117;28;20181;-57
2022/08/14 06:47:40;;;;;;;1.85;1.60;;;24.60;71.50;;;;;;5112222;28;20174;-58
2022/08/14 06:50:18;;;;;;;1.50;1.40;;;24.50;71.40;;;;;;5113563;28;20622;-57
2022/08/14 06:52:44;;;;;;;2.20;1.55;;;24.60;71.30;;;;;;5117323;28;20169;-58
2022/08/14 06:55:11;;;;;;;1.88;1.45;;;24.80;71.60;;;;;;5116174;28;20210;-57
2022/08/14 06:57:56;;;;;;;3.10;1.40;;;25.10;71.70;;;;;;5116178;28;20225;-58
2022/08/14 07:00:23;;;;;;;2.28;1.50;;;25.30;71.10;;;;;;5117160;28;20665;-58
2022/08/14 07:08:16;;;;;;;1.40;1.30;;;26.00;68.90;;;;;;5117092;28;20181;-58
2022/08/14 07:10:44;;;;;;;1.55;1.45;;;26.10;68.50;;;;;;5116739;28;20507;-58
2022/08/14 07:13:12;;;;;;;1.35;1.25;;;26.20;68.60;;;;;;5116138;28;20198;-58
2022/08/14 07:15:40;;;;;;;1.42;1.33;;;26.40;68.80;;;;;;5116993;28;20165;-58
2022/08/14 07:18:07;;;;;;;1.30;1.20;;;26.30;67.60;;;;;;5115503;28;20209;-58
2022/08/14 07:20:33;;;;;;;1.35;1.23;;;26.70;67.30;;;;;;5115553;28;20659;-58
2022/08/14 07:23:03;;;;;;;1.38;1.17;;;26.70;67.20;;;;;;5115610;28;20215;-58
2022/08/14 07:25:29;;;;;;;1.38;1.27;;;26.90;67.20;;;;;;5116551;28;20173;-59
2022/08/14 07:27:56;;;;;;;1.35;1.25;;;26.80;66.90;;;;;;5116645;28;20645;-58
2022/08/14 07:30:22;;;;;;;1.40;1.30;;;27.20;66.60;;;;;;5116661;28;20177;-60
2022/08/14 07:32:48;;;;;;;1.45;1.35;;;27.00;66.80;;;;;;5116676;28;20173;-59
2022/08/14 07:35:14;;;;;;;1.40;1.30;;;26.70;66.90;;;;;;5116015;28;20657;-58
2022/08/14 07:37:40;;;;;;;1.20;1.10;;;26.90;67.60;;;;;;5097326;28;20268;-57
2022/08/14 07:40:07;;;;;;;1.40;1.20;;;27.20;66.50;;;;;;5116110;28;20216;-58
2022/08/14 07:42:33;;;;;;;1.20;1.10;;;27.20;66.30;;;;;;5116471;28;20192;-57
2022/08/14 07:44:59;;;;;;;1.48;1.30;;;27.30;66.40;;;;;;5115191;28;20631;-58
2022/08/14 07:47:26;;;;;;;1.45;1.10;;;27.30;66.70;;;;;;5129098;27;20207;-58
2022/08/14 07:50:06;;;;;;;1.15;1.15;;;27.70;66.00;;;;;;5136752;27;20183;-57
2022/08/14 07:52:32;;;;;;;1.38;1.27;;;27.40;65.40;;;;;;5136562;27;20204;-57
2022/08/14 07:54:59;;;;;;;1.67;1.20;;;27.20;66.00;;;;;;5135700;27;20203;-58
2022/08/14 07:57:26;;;;;;;1.20;1.10;;;27.20;66.60;;;;;;5135516;27;20265;-58
2022/08/14 07:59:52;;;;;;;1.58;1.25;;;27.50;66.70;;;;;;5135444;27;20204;-57
2022/08/14 08:02:19;;;;;;;1.38;1.27;;;27.80;66.20;;;;;;5136469;27;20172;-57
2022/08/14 08:04:47;;;;;;;1.35;1.25;;;27.50;65.80;;;;;;5136314;27;20255;-58
2022/08/14 08:07:13;;;;;;;3.28;1.42;;;27.50;66.70;;;;;;5136335;27;20534;-57
2022/08/14 08:09:45;;;;;;;1.58;1.13;;;27.70;66.30;;;;;;5135462;27;20177;-57
2022/08/14 08:12:14;;;;;;;1.30;1.20;;;27.90;65.60;;;;;;5136471;27;20525;-57
2022/08/14 08:14:42;;;;;;;1.70;1.60;;;28.10;65.80;;;;;;5136114;27;20208;-57
2022/08/14 08:17:09;;;;;;;1.55;1.40;;;28.40;65.70;;;;;;5134851;27;20175;-58
2022/08/14 08:19:36;;;;;;;1.55;1.20;;;28.50;65.30;;;;;;5136058;27;20215;-58
2022/08/14 08:22:02;;;;;;;1.55;1.45;;;28.50;65.50;;;;;;5134925;27;20196;-58
2022/08/14 08:24:28;;;;;;;1.30;1.20;;;28.50;65.20;;;;;;5136266;27;20195;-58
2022/08/14 08:26:54;;;;;;;1.48;1.38;;;28.50;64.70;;;;;;5136081;27;20213;-58
2022/08/14 08:29:21;;;;;;;1.42;1.33;;;28.80;64.80;;;;;;5136149;27;20169;-58
2022/08/14 08:31:51;;;;;;;2.72;1.40;;;28.80;63.90;;;;;;5117696;27;20184;-58
2022/08/14 08:34:18;;;;;;;1.88;1.77;;;28.70;64.80;;;;;;5135543;27;20263;-57
2022/08/14 08:36:44;;;;;;;1.67;1.58;;;28.50;64.10;;;;;;5136117;27;20172;-58
2022/08/14 08:39:10;;;;;;;2.38;1.55;;;28.30;65.00;;;;;;5134734;27;20212;-57
2022/08/14 08:41:44;;;;;;;1.60;1.50;;;28.30;64.50;;;;;;5135667;27;20173;-58
2022/08/14 08:44:10;;;;;;;1.73;1.40;;;28.70;65.30;;;;;;5134408;27;20645;-57
2022/08/14 08:46:36;;;;;;;1.70;1.60;;;28.80;65.10;;;;;;5135531;27;20562;-58
2022/08/14 08:49:02;;;;;;;1.48;1.38;;;28.80;65.10;;;;;;5134440;27;20656;-58
2022/08/14 08:51:29;;;;;;;3.13;1.65;;;28.90;65.50;;;;;;5134542;27;20169;-58
2022/08/14 08:54:15;;;;;;;1.48;1.30;;;29.00;65.60;;;;;;5135665;27;20172;-58
2022/08/14 08:56:42;;;;;;;1.85;1.40;;;29.10;64.70;;;;;;5135086;27;20191;-58
2022/08/14 08:59:29;;;;;;;1.42;1.33;;;29.30;65.00;;;;;;5135140;27;20208;-59
2022/08/14 09:01:59;;;;;;;1.83;1.60;;;29.30;64.00;;;;;;5135652;27;20207;-58
2022/08/14 09:04:26;;;;;;;2.35;1.50;;;29.30;63.80;;;;;;5135431;27;20698;-58
2022/08/14 09:06:52;;;;;;;1.27;1.17;;;29.40;64.60;;;;;;5124294;27;20177;-58
2022/08/14 09:09:28;;;;;;;1.77;1.67;;;29.30;64.10;;;;;;5112967;28;20638;-59
2022/08/14 09:11:56;;;;;;;1.70;1.60;;;29.20;64.30;;;;;;5114044;28;20222;-56
2022/08/14 09:14:28;;;;;;;1.40;1.30;;;29.50;64.10;;;;;;5113985;28;20200;-57
2022/08/14 09:16:55;;;;;;;2.30;1.80;;;29.50;64.50;;;;;;5121684;27;20642;-57
2022/08/14 09:19:21;;;;;;;1.80;1.50;;;29.50;64.20;;;;;;5115284;27;20696;-58
2022/08/14 09:21:47;;;;;;;2.03;1.35;;;29.60;64.80;;;;;;5135174;27;20255;-57
2022/08/14 09:24:13;;;;;;;2.17;1.45;;;29.70;64.50;;;;;;5134830;27;20172;-58
2022/08/14 09:26:40;;;;;;;1.55;1.45;;;29.70;64.90;;;;;;5134867;27;20184;-56
2022/08/14 09:29:08;;;;;;;1.60;1.50;;;29.90;65.20;;;;;;5134812;27;20275;-57
2022/08/14 09:31:36;;;;;;;1.73;1.63;;;30.10;64.00;;;;;;5135059;27;20715;-58
2022/08/14 09:34:21;;;;;;;1.98;1.60;;;30.10;65.50;;;;;;5134765;27;20321;-58
2022/08/14 09:37:30;;;;;;;1.83;1.60;;;30.70;65.00;;;;;;5134648;27;20176;-59
2022/08/14 09:40:11;;;;;;;1.77;1.67;;;30.70;63.40;;;;;;5134643;27;20303;-57
2022/08/14 09:42:52;;;;;;;2.30;1.42;;;30.50;64.00;;;;;;5134737;27;20312;-58
2022/08/14 09:45:44;;;;;;;2.10;1.63;;;30.70;64.40;;;;;;5133182;27;20202;-58
2022/08/14 09:48:23;;;;;;;1.45;1.35;;;30.60;64.60;;;;;;5134548;27;20265;-58
2022/08/14 09:50:50;;;;;;;1.90;1.40;;;30.80;64.30;;;;;;5134390;27;20180;-57
2022/08/14 09:53:46;;;;;;;1.65;1.50;;;30.80;63.30;;;;;;5133283;27;20169;-58
2022/08/14 09:56:12;;;;;;;1.60;1.50;;;30.70;62.90;;;;;;5124342;27;20233;-58
2022/08/14 09:58:44;;;;;;;1.63;1.50;;;30.60;63.10;;;;;;5134098;27;20212;-58
2022/08/14 10:01:18;;;;;;;1.75;1.45;;;30.80;64.20;;;;;;5134340;27;20171;-58
2022/08/14 10:03:55;;;;;;;1.65;1.50;;;30.80;62.20;;;;;;5134184;27;20259;-57
2022/08/14 10:06:24;;;;;;;1.30;1.20;;;31.00;61.70;;;;;;5133843;27;20609;-58
2022/08/14 10:08:52;;;;;;;1.77;1.20;;;31.30;59.70;;;;;;5133677;27;20205;-58
2022/08/14 10:11:23;;;;;;;1.30;1.15;;;31.40;58.00;;;;;;5134262;27;20180;-58
2022/08/14 10:13:54;;;;;;;1.45;1.27;;;31.60;57.90;;;;;;5134310;28;20618;-58
2022/08/14 10:16:28;;;;;;;1.20;1.05;;;32.10;56.00;;;;;;5134217;28;20177;-58
2022/08/14 10:19:08;;;;;;;1.75;1.30;;;32.40;56.20;;;;;;5134137;28;20216;-58
2022/08/14 10:21:36;;;;;;;1.23;1.08;;;32.40;54.90;;;;;;5134372;28;20165;-58
2022/08/14 10:24:02;;;;;;;1.20;1.10;;;32.60;56.00;;;;;;5134234;28;20263;-58
2022/08/14 10:26:27;;;;;;;0.93;0.90;;;32.90;55.90;;;;;;5135983;27;20246;-58
2022/08/14 10:28:55;;;;;;;1.10;1.00;;;33.00;56.10;;;;;;5138273;27;20219;-58
2022/08/14 10:31:32;;;;;;;1.65;1.08;;;33.20;57.20;;;;;;5138499;27;20204;-58
2022/08/14 10:34:07;;;;;;;0.70;0.70;;;33.60;56.20;;;;;;5138470;27;20160;-58
2022/08/14 10:36:42;;;;;;;1.30;1.20;;;33.70;52.90;;;;;;5138195;27;20195;-58
2022/08/14 10:39:19;;;;;;;0.60;0.60;;;33.70;53.50;;;;;;5138149;27;20200;-58
2022/08/14 10:41:45;;;;;;;0.68;0.68;;;33.80;53.00;;;;;;5138479;27;20585;-58
2022/08/14 10:44:20;;;;;;;0.68;0.65;;;33.70;51.90;;;;;;5138512;27;20498;-58
2022/08/14 10:46:54;;;;;;;0.70;0.70;;;33.60;52.00;;;;;;5138285;27;20172;-58
2022/08/14 10:49:22;;;;;;;1.45;0.77;;;33.20;50.60;;;;;;5138127;27;20629;-58
2022/08/14 10:52:07;;;;;;;0.60;0.60;;;33.20;51.60;;;;;;5138075;27;20514;-58
2022/08/14 10:54:43;;;;;;;1.23;0.73;;;33.10;50.30;;;;;;5138129;27;20161;-58
2022/08/14 10:57:26;;;;;;;1.00;0.80;;;33.10;50.90;;;;;;5137883;27;20179;-58
2022/08/14 10:59:55;;;;;;;0.88;0.88;;;33.40;51.10;;;;;;5137888;27;20253;-58
2022/08/14 11:02:35;;;;;;;0.73;0.70;;;33.60;50.80;;;;;;5137690;27;20634;-57
2022/08/14 11:05:06;;;;;;;0.55;0.55;;;33.60;50.60;;;;;;5137855;27;20180;-58
2022/08/14 11:07:38;;;;;;;0.60;0.60;;;33.40;50.10;;;;;;5137829;27;20203;-58
2022/08/14 11:10:11;;;;;;;0.70;0.70;;;33.60;50.50;;;;;;5137645;27;20192;-58
2022/08/14 11:12:48;;;;;;;0.60;0.60;;;33.50;50.40;;;;;;5137354;27;20194;-57
2022/08/14 11:15:26;;;;;;;0.70;0.70;;;33.40;50.90;;;;;;5137587;27;20693;-58
2022/08/14 11:17:53;;;;;;;0.70;0.70;;;33.30;50.20;;;;;;5137673;27;20165;-58
2022/08/14 11:20:21;;;;;;;0.70;0.70;;;33.40;51.00;;;;;;5136214;27;20180;-58
2022/08/14 11:22:51;;;;;;;1.17;0.80;;;33.20;51.00;;;;;;5137448;27;20181;-58
2022/08/14 11:25:19;;;;;;;0.60;0.60;;;33.20;51.00;;;;;;5137227;27;20165;-58
2022/08/14 11:27:46;;;;;;;0.80;0.80;;;33.20;50.80;;;;;;5137395;27;20168;-58
2022/08/14 11:30:15;;;;;;;0.82;0.80;;;33.30;50.70;;;;;;5137313;27;20321;-58
2022/08/14 11:32:44;;;;;;;0.70;0.70;;;33.10;50.80;;;;;;5137222;27;20645;-58
2022/08/14 11:35:14;;;;;;;0.75;0.65;;;32.90;50.90;;;;;;5137298;27;20180;-58
2022/08/14 11:37:57;;;;;;;0.90;0.80;;;32.70;49.60;;;;;;5136452;27;20559;-58
2022/08/14 11:40:25;;;;;;;0.70;0.70;;;32.60;50.60;;;;;;5137239;27;20177;-58
2022/08/14 11:42:54;;;;;;;0.80;0.80;;;33.10;51.90;;;;;;5137134;27;20691;-57
2022/08/14 11:45:22;;;;;;;0.90;0.80;;;33.20;50.70;;;;;;5137152;27;20176;-57
2022/08/14 11:47:49;;;;;;;0.70;0.70;;;33.10;50.20;;;;;;5136859;27;20236;-58
2022/08/14 11:50:37;;;;;;;0.70;0.70;;;32.90;50.40;;;;;;5136800;27;20704;-58
2022/08/14 11:53:03;;;;;;;2.25;0.90;;;33.00;50.60;;;;;;5136349;27;20206;-58
2022/08/14 11:55:34;;;;;;;0.70;0.70;;;32.90;51.20;;;;;;5136933;27;20169;-58
2022/08/14 11:58:08;;;;;;;1.65;0.82;;;33.00;51.00;;;;;;5136715;27;20200;-58
2022/08/14 12:00:45;;;;;;;1.02;0.93;;;32.90;50.80;;;;;;5136706;27;20171;-58
2022/08/14 12:03:11;;;;;;;0.75;0.75;;;33.10;50.20;;;;;;5136829;27;20165;-58
2022/08/14 12:05:40;;;;;;;0.82;0.80;;;33.10;51.00;;;;;;5135588;27;20525;-58
2022/08/14 12:08:07;;;;;;;1.33;0.73;;;33.10;50.20;;;;;;5136459;27;20169;-58
2022/08/14 12:10:38;;;;;;;0.70;0.70;;;33.00;51.00;;;;;;5136440;27;20180;-58
2022/08/14 12:13:15;;;;;;;0.68;0.68;;;33.30;51.00;;;;;;5134892;27;20192;-57
2022/08/14 12:15:45;;;;;;;0.88;0.88;;;33.60;51.60;;;;;;5136445;27;20168;-57
2022/08/14 12:18:11;;;;;;;1.15;0.90;;;33.70;50.70;;;;;;5136414;27;20538;-58
2022/08/14 12:20:41;;;;;;;0.80;0.80;;;33.60;51.00;;;;;;5135266;27;20169;-58
2022/08/14 12:23:19;;;;;;;0.80;0.80;;;33.80;51.50;;;;;;5136283;27;20702;-58
2022/08/14 12:25:44;;;;;;;0.88;0.88;;;33.60;51.20;;;;;;5136115;27;20173;-58
2022/08/14 12:28:11;;;;;;;0.85;0.82;;;33.70;51.10;;;;;;5136643;27;20297;-58
2022/08/14 12:30:39;;;;;;;0.90;0.90;;;33.70;50.20;;;;;;5136264;27;20212;-58
2022/08/14 12:33:20;;;;;;;0.95;0.90;;;33.40;50.40;;;;;;5136037;27;20177;-57
2022/08/14 12:35:48;;;;;;;0.80;0.80;;;33.40;50.50;;;;;;5135938;27;20164;-58
2022/08/14 12:38:15;;;;;;;0.73;0.73;;;33.40;50.30;;;;;;5135734;27;20176;-58
2022/08/14 12:40:46;;;;;;;0.80;0.80;;;33.20;50.10;;;;;;5135937;27;20197;-58
2022/08/14 12:43:13;;;;;;;0.70;0.70;;;32.90;50.40;;;;;;5136174;27;20631;-58
2022/08/14 12:45:39;;;;;;;0.60;0.60;;;32.60;50.50;;;;;;5135760;27;20271;-57
2022/08/14 12:48:05;;;;;;;0.90;0.90;;;32.70;50.90;;;;;;5134990;27;20537;-58
2022/08/14 12:50:39;;;;;;;0.70;0.70;;;32.60;50.80;;;;;;5135231;27;20251;-57
2022/08/14 12:53:08;;;;;;;0.80;0.73;;;32.40;50.30;;;;;;5135792;27;20168;-57
2022/08/14 12:55:38;;;;;;;0.90;0.90;;;32.50;50.60;;;;;;5135983;27;20179;-58
2022/08/14 12:58:06;;;;;;;0.88;0.70;;;32.80;51.20;;;;;;5135591;27;20173;-57
2022/08/14 13:00:34;;;;;;;0.80;0.77;;;33.00;51.80;;;;;;5135502;27;20685;-57
2022/08/14 13:03:00;;;;;;;1.08;0.90;;;32.90;50.40;;;;;;5135301;27;20633;-58
2022/08/14 13:05:31;;;;;;;0.70;0.70;;;33.00;50.90;;;;;;5135600;27;20176;-58
2022/08/14 13:07:58;;;;;;;0.70;0.70;;;33.30;52.00;;;;;;5135441;27;20237;-57
2022/08/14 13:10:25;;;;;;;0.60;0.60;;;33.40;49.50;;;;;;5135326;27;20172;-58
2022/08/14 13:12:55;;;;;;;0.68;0.68;;;33.50;48.80;;;;;;5134977;27;20187;-57